sensor_id;sensor_type;location;lat;lon;timestamp;P1;durP1;ratioP1;P2;durP2;ratioP2
22219;SDS011;11279;48.364;10.904;2023-03-31T00:00:14;15.70;;;7.63;;
22219;SDS011;11279;48.364;10.904;2023-03-31T00:01:15;11.50;;;6.88;;
22219;SDS011;11279;48.364;10.904;2023-03-31T00:02:15;18.10;;;8.17;;
22219;SDS011;11279;48.364;10.904;2023-03-31T00:03:16;14.97;;;6.93;;
22219;SDS011;11279;48.364;10.904;2023-03-31T00:04:23;13.23;;;7.50;;
22219;SDS011;11279;48.364;10.904;2023-03-31T00:05:25;15.93;;;7.07;;
22219;SDS011;11279;48.364;10.904;2023-03-31T00:06:25;12.43;;;6.73;;
22219;SDS011;11279;48.364;10.904;2023-03-31T00:07:26;13.67;;;7.83;;
22219;SDS011;11279;48.364;10.904;2023-03-31T00:08:27;12.73;;;6.83;;
22219;SDS011;11279;48.364;10.904;2023-03-31T00:09:34;13.00;;;7.60;;
22219;SDS011;11279;48.364;10.904;2023-03-31T00:10:34;13.87;;;7.03;;
22219;SDS011;11279;48.364;10.904;2023-03-31T00:11:35;17.07;;;7.37;;
22219;SDS011;11279;48.364;10.904;2023-03-31T00:12:36;15.40;;;7.07;;
22219;SDS011;11279;48.364;10.904;2023-03-31T00:13:37;14.57;;;7.27;;
22219;SDS011;11279;48.364;10.904;2023-03-31T00:14:37;14.57;;;7.50;;
22219;SDS011;11279;48.364;10.904;2023-03-31T00:15:38;17.07;;;7.00;;
22219;SDS011;11279;48.364;10.904;2023-03-31T00:16:39;14.77;;;7.47;;
22219;SDS011;11279;48.364;10.904;2023-03-31T00:17:40;14.03;;;7.10;;
22219;SDS011;11279;48.364;10.904;2023-03-31T00:18:40;17.67;;;7.23;;
22219;SDS011;11279;48.364;10.904;2023-03-31T00:19:46;14.80;;;7.13;;
22219;SDS011;11279;48.364;10.904;2023-03-31T00:20:48;15.32;;;7.10;;
22219;SDS011;11279;48.364;10.904;2023-03-31T00:21:51;16.55;;;7.65;;
22219;SDS011;11279;48.364;10.904;2023-03-31T00:22:53;18.38;;;7.45;;
22219;SDS011;11279;48.364;10.904;2023-03-31T00:23:57;14.38;;;7.20;;
22219;SDS011;11279;48.364;10.904;2023-03-31T00:24:59;13.93;;;7.55;;
22219;SDS011;11279;48.364;10.904;2023-03-31T00:25:59;11.77;;;7.33;;
22219;SDS011;11279;48.364;10.904;2023-03-31T00:27:00;13.83;;;7.00;;
22219;SDS011;11279;48.364;10.904;2023-03-31T00:28:02;12.38;;;7.43;;
22219;SDS011;11279;48.364;10.904;2023-03-31T00:29:03;12.33;;;6.87;;
22219;SDS011;11279;48.364;10.904;2023-03-31T00:30:05;15.15;;;6.65;;
22219;SDS011;11279;48.364;10.904;2023-03-31T00:31:06;12.98;;;7.45;;
22219;SDS011;11279;48.364;10.904;2023-03-31T00:32:07;15.50;;;7.60;;
22219;SDS011;11279;48.364;10.904;2023-03-31T00:33:07;14.57;;;7.37;;
22219;SDS011;11279;48.364;10.904;2023-03-31T00:34:08;11.73;;;6.40;;
22219;SDS011;11279;48.364;10.904;2023-03-31T00:35:09;11.53;;;6.97;;
22219;SDS011;11279;48.364;10.904;2023-03-31T00:36:09;14.10;;;7.20;;
22219;SDS011;11279;48.364;10.904;2023-03-31T00:37:09;12.80;;;7.43;;
22219;SDS011;11279;48.364;10.904;2023-03-31T00:38:14;13.73;;;7.22;;
22219;SDS011;11279;48.364;10.904;2023-03-31T00:39:16;16.63;;;7.20;;
22219;SDS011;11279;48.364;10.904;2023-03-31T00:40:18;13.05;;;6.80;;
22219;SDS011;11279;48.364;10.904;2023-03-31T00:41:18;15.20;;;7.43;;
22219;SDS011;11279;48.364;10.904;2023-03-31T00:42:19;13.57;;;7.03;;
22219;SDS011;11279;48.364;10.904;2023-03-31T00:43:30;15.67;;;7.03;;
22219;SDS011;11279;48.364;10.904;2023-03-31T00:44:32;16.73;;;7.35;;
22219;SDS011;11279;48.364;10.904;2023-03-31T00:45:33;12.80;;;7.05;;
22219;SDS011;11279;48.364;10.904;2023-03-31T00:46:53;13.70;;;6.90;;
22219;SDS011;11279;48.364;10.904;2023-03-31T00:48:05;15.25;;;7.60;;
22219;SDS011;11279;48.364;10.904;2023-03-31T00:49:13;12.93;;;7.15;;
22219;SDS011;11279;48.364;10.904;2023-03-31T00:50:27;17.30;;;7.80;;
22219;SDS011;11279;48.364;10.904;2023-03-31T00:51:31;12.55;;;6.97;;
22219;SDS011;11279;48.364;10.904;2023-03-31T00:52:33;16.65;;;8.10;;
22219;SDS011;11279;48.364;10.904;2023-03-31T00:53:36;12.23;;;7.60;;
22219;SDS011;11279;48.364;10.904;2023-03-31T00:54:37;14.70;;;7.67;;
22219;SDS011;11279;48.364;10.904;2023-03-31T00:55:39;15.30;;;7.20;;
22219;SDS011;11279;48.364;10.904;2023-03-31T00:56:42;11.10;;;6.95;;
22219;SDS011;11279;48.364;10.904;2023-03-31T00:57:44;15.55;;;7.70;;
22219;SDS011;11279;48.364;10.904;2023-03-31T00:58:46;14.80;;;7.15;;
22219;SDS011;11279;48.364;10.904;2023-03-31T00:59:49;13.65;;;7.30;;
22219;SDS011;11279;48.364;10.904;2023-03-31T01:00:52;18.50;;;8.35;;
22219;SDS011;11279;48.364;10.904;2023-03-31T01:01:54;14.25;;;7.68;;
22219;SDS011;11279;48.364;10.904;2023-03-31T01:02:58;13.38;;;7.03;;
22219;SDS011;11279;48.364;10.904;2023-03-31T01:04:02;16.60;;;7.45;;
22219;SDS011;11279;48.364;10.904;2023-03-31T01:05:04;14.32;;;7.93;;
22219;SDS011;11279;48.364;10.904;2023-03-31T01:06:05;13.88;;;7.55;;
22219;SDS011;11279;48.364;10.904;2023-03-31T01:07:15;13.77;;;7.68;;
22219;SDS011;11279;48.364;10.904;2023-03-31T01:08:18;16.10;;;7.88;;
22219;SDS011;11279;48.364;10.904;2023-03-31T01:09:23;13.02;;;6.95;;
22219;SDS011;11279;48.364;10.904;2023-03-31T01:10:24;15.38;;;7.53;;
22219;SDS011;11279;48.364;10.904;2023-03-31T01:11:25;16.27;;;7.50;;
22219;SDS011;11279;48.364;10.904;2023-03-31T01:12:27;16.35;;;7.97;;
22219;SDS011;11279;48.364;10.904;2023-03-31T01:13:27;12.87;;;7.50;;
22219;SDS011;11279;48.364;10.904;2023-03-31T01:14:29;15.82;;;8.35;;
22219;SDS011;11279;48.364;10.904;2023-03-31T01:15:30;15.53;;;8.40;;
22219;SDS011;11279;48.364;10.904;2023-03-31T01:16:30;15.03;;;8.40;;
22219;SDS011;11279;48.364;10.904;2023-03-31T01:17:33;16.67;;;8.27;;
22219;SDS011;11279;48.364;10.904;2023-03-31T01:18:33;15.57;;;8.33;;
22219;SDS011;11279;48.364;10.904;2023-03-31T01:27:00;15.10;;;7.93;;
22219;SDS011;11279;48.364;10.904;2023-03-31T01:30:56;17.77;;;8.07;;
22219;SDS011;11279;48.364;10.904;2023-03-31T01:40:45;19.25;;;9.15;;
22219;SDS011;11279;48.364;10.904;2023-03-31T01:45:02;17.25;;;8.43;;
22219;SDS011;11279;48.364;10.904;2023-03-31T01:47:32;19.70;;;8.63;;
22219;SDS011;11279;48.364;10.904;2023-03-31T01:50:03;13.57;;;8.35;;
22219;SDS011;11279;48.364;10.904;2023-03-31T01:51:18;14.00;;;8.30;;
22219;SDS011;11279;48.364;10.904;2023-03-31T01:52:31;16.67;;;7.90;;
22219;SDS011;11279;48.364;10.904;2023-03-31T01:55:11;13.23;;;8.52;;
22219;SDS011;11279;48.364;10.904;2023-03-31T01:56:21;13.70;;;8.20;;
22219;SDS011;11279;48.364;10.904;2023-03-31T01:58:07;18.02;;;8.02;;
22219;SDS011;11279;48.364;10.904;2023-03-31T01:59:58;20.27;;;9.07;;
22219;SDS011;11279;48.364;10.904;2023-03-31T02:01:05;14.40;;;8.68;;
22219;SDS011;11279;48.364;10.904;2023-03-31T02:02:14;16.92;;;7.97;;
22219;SDS011;11279;48.364;10.904;2023-03-31T02:03:17;18.42;;;9.18;;
22219;SDS011;11279;48.364;10.904;2023-03-31T02:04:23;15.23;;;8.05;;
22219;SDS011;11279;48.364;10.904;2023-03-31T02:05:32;17.80;;;8.23;;
22219;SDS011;11279;48.364;10.904;2023-03-31T02:06:37;15.90;;;8.77;;
22219;SDS011;11279;48.364;10.904;2023-03-31T02:07:42;17.25;;;8.73;;
22219;SDS011;11279;48.364;10.904;2023-03-31T02:08:48;15.02;;;8.57;;
22219;SDS011;11279;48.364;10.904;2023-03-31T02:09:55;16.83;;;8.60;;
22219;SDS011;11279;48.364;10.904;2023-03-31T02:10:57;16.15;;;8.55;;
22219;SDS011;11279;48.364;10.904;2023-03-31T02:11:58;17.02;;;8.57;;
22219;SDS011;11279;48.364;10.904;2023-03-31T02:12:59;18.17;;;8.70;;
22219;SDS011;11279;48.364;10.904;2023-03-31T02:14:00;16.65;;;8.75;;
22219;SDS011;11279;48.364;10.904;2023-03-31T02:15:03;17.42;;;8.98;;
22219;SDS011;11279;48.364;10.904;2023-03-31T02:16:05;16.25;;;8.10;;
22219;SDS011;11279;48.364;10.904;2023-03-31T02:17:10;12.77;;;7.95;;
22219;SDS011;11279;48.364;10.904;2023-03-31T02:18:18;13.73;;;7.85;;
22219;SDS011;11279;48.364;10.904;2023-03-31T02:19:20;14.32;;;8.30;;
22219;SDS011;11279;48.364;10.904;2023-03-31T02:20:22;16.85;;;8.60;;
22219;SDS011;11279;48.364;10.904;2023-03-31T02:21:24;18.35;;;8.20;;
22219;SDS011;11279;48.364;10.904;2023-03-31T02:22:24;14.37;;;7.83;;
22219;SDS011;11279;48.364;10.904;2023-03-31T02:23:27;16.77;;;7.97;;
22219;SDS011;11279;48.364;10.904;2023-03-31T02:24:30;16.40;;;7.60;;
22219;SDS011;11279;48.364;10.904;2023-03-31T02:25:33;14.68;;;7.75;;
22219;SDS011;11279;48.364;10.904;2023-03-31T02:26:36;15.20;;;8.20;;
22219;SDS011;11279;48.364;10.904;2023-03-31T02:27:41;17.42;;;7.60;;
22219;SDS011;11279;48.364;10.904;2023-03-31T02:28:43;17.67;;;7.88;;
22219;SDS011;11279;48.364;10.904;2023-03-31T02:29:44;14.50;;;8.03;;
22219;SDS011;11279;48.364;10.904;2023-03-31T02:33:10;14.25;;;7.97;;
22219;SDS011;11279;48.364;10.904;2023-03-31T02:34:11;13.93;;;8.23;;
22219;SDS011;11279;48.364;10.904;2023-03-31T02:35:15;15.97;;;8.20;;
22219;SDS011;11279;48.364;10.904;2023-03-31T02:36:17;13.85;;;7.30;;
22219;SDS011;11279;48.364;10.904;2023-03-31T02:37:17;15.88;;;7.40;;
22219;SDS011;11279;48.364;10.904;2023-03-31T02:38:18;13.47;;;7.30;;
22219;SDS011;11279;48.364;10.904;2023-03-31T02:39:20;14.27;;;7.67;;
22219;SDS011;11279;48.364;10.904;2023-03-31T02:40:24;16.27;;;7.80;;
22219;SDS011;11279;48.364;10.904;2023-03-31T02:41:26;16.95;;;8.70;;
22219;SDS011;11279;48.364;10.904;2023-03-31T02:42:27;16.57;;;8.37;;
22219;SDS011;11279;48.364;10.904;2023-03-31T02:43:28;18.57;;;8.37;;
22219;SDS011;11279;48.364;10.904;2023-03-31T02:44:28;13.60;;;8.20;;
22219;SDS011;11279;48.364;10.904;2023-03-31T02:45:35;16.40;;;7.67;;
22219;SDS011;11279;48.364;10.904;2023-03-31T02:46:43;15.88;;;8.18;;
22219;SDS011;11279;48.364;10.904;2023-03-31T02:47:44;15.10;;;7.53;;
22219;SDS011;11279;48.364;10.904;2023-03-31T02:48:46;16.00;;;7.93;;
22219;SDS011;11279;48.364;10.904;2023-03-31T02:49:50;16.38;;;7.55;;
22219;SDS011;11279;48.364;10.904;2023-03-31T02:56:21;12.68;;;7.03;;
22219;SDS011;11279;48.364;10.904;2023-03-31T02:57:50;14.40;;;7.45;;
22219;SDS011;11279;48.364;10.904;2023-03-31T03:01:09;15.20;;;7.13;;
22219;SDS011;11279;48.364;10.904;2023-03-31T03:02:19;13.38;;;6.75;;
22219;SDS011;11279;48.364;10.904;2023-03-31T03:07:24;18.60;;;8.05;;
22219;SDS011;11279;48.364;10.904;2023-03-31T03:09:46;14.88;;;7.13;;
22219;SDS011;11279;48.364;10.904;2023-03-31T03:12:21;14.68;;;7.35;;
22219;SDS011;11279;48.364;10.904;2023-03-31T03:13:35;16.73;;;7.47;;
22219;SDS011;11279;48.364;10.904;2023-03-31T03:14:48;13.55;;;5.50;;
22219;SDS011;11279;48.364;10.904;2023-03-31T03:16:00;9.95;;;5.88;;
22219;SDS011;11279;48.364;10.904;2023-03-31T03:17:05;12.95;;;6.72;;
22219;SDS011;11279;48.364;10.904;2023-03-31T03:18:07;14.00;;;6.18;;
22219;SDS011;11279;48.364;10.904;2023-03-31T03:19:08;15.97;;;6.93;;
22219;SDS011;11279;48.364;10.904;2023-03-31T03:20:10;12.30;;;6.13;;
22219;SDS011;11279;48.364;10.904;2023-03-31T03:21:11;14.95;;;6.85;;
22219;SDS011;11279;48.364;10.904;2023-03-31T03:22:11;13.80;;;5.77;;
22219;SDS011;11279;48.364;10.904;2023-03-31T03:23:12;13.77;;;6.67;;
22219;SDS011;11279;48.364;10.904;2023-03-31T03:24:15;13.23;;;6.17;;
22219;SDS011;11279;48.364;10.904;2023-03-31T03:25:17;10.40;;;5.53;;
22219;SDS011;11279;48.364;10.904;2023-03-31T03:26:19;14.35;;;5.88;;
22219;SDS011;11279;48.364;10.904;2023-03-31T03:27:22;14.10;;;5.82;;
22219;SDS011;11279;48.364;10.904;2023-03-31T03:28:23;19.87;;;6.60;;
22219;SDS011;11279;48.364;10.904;2023-03-31T03:29:23;11.80;;;6.00;;
22219;SDS011;11279;48.364;10.904;2023-03-31T03:30:24;10.90;;;5.93;;
22219;SDS011;11279;48.364;10.904;2023-03-31T03:31:24;13.67;;;5.63;;
22219;SDS011;11279;48.364;10.904;2023-03-31T03:32:25;17.13;;;6.50;;
22219;SDS011;11279;48.364;10.904;2023-03-31T03:33:25;14.03;;;7.13;;
22219;SDS011;11279;48.364;10.904;2023-03-31T03:34:26;12.10;;;6.57;;
22219;SDS011;11279;48.364;10.904;2023-03-31T03:35:26;16.07;;;7.20;;
22219;SDS011;11279;48.364;10.904;2023-03-31T03:36:27;11.43;;;6.80;;
22219;SDS011;11279;48.364;10.904;2023-03-31T03:37:27;13.50;;;6.60;;
22219;SDS011;11279;48.364;10.904;2023-03-31T03:38:28;13.88;;;6.68;;
22219;SDS011;11279;48.364;10.904;2023-03-31T03:39:28;13.20;;;6.50;;
22219;SDS011;11279;48.364;10.904;2023-03-31T03:40:29;21.00;;;6.87;;
22219;SDS011;11279;48.364;10.904;2023-03-31T03:41:29;15.57;;;6.90;;
22219;SDS011;11279;48.364;10.904;2023-03-31T03:42:32;17.80;;;6.72;;
22219;SDS011;11279;48.364;10.904;2023-03-31T03:43:33;12.70;;;6.82;;
22219;SDS011;11279;48.364;10.904;2023-03-31T03:44:34;12.47;;;6.50;;
22219;SDS011;11279;48.364;10.904;2023-03-31T03:45:34;16.47;;;6.57;;
22219;SDS011;11279;48.364;10.904;2023-03-31T03:46:34;14.73;;;7.27;;
22219;SDS011;11279;48.364;10.904;2023-03-31T03:47:35;22.17;;;8.03;;
22219;SDS011;11279;48.364;10.904;2023-03-31T03:48:35;12.67;;;6.53;;
22219;SDS011;11279;48.364;10.904;2023-03-31T03:49:36;19.53;;;8.17;;
22219;SDS011;11279;48.364;10.904;2023-03-31T03:50:36;18.50;;;7.70;;
22219;SDS011;11279;48.364;10.904;2023-03-31T03:51:37;15.20;;;6.93;;
22219;SDS011;11279;48.364;10.904;2023-03-31T03:52:37;14.83;;;7.23;;
22219;SDS011;11279;48.364;10.904;2023-03-31T03:53:38;19.73;;;7.73;;
22219;SDS011;11279;48.364;10.904;2023-03-31T03:54:38;21.50;;;7.50;;
22219;SDS011;11279;48.364;10.904;2023-03-31T03:55:39;17.47;;;7.57;;
22219;SDS011;11279;48.364;10.904;2023-03-31T03:56:39;15.97;;;7.50;;
22219;SDS011;11279;48.364;10.904;2023-03-31T03:57:40;20.40;;;8.47;;
22219;SDS011;11279;48.364;10.904;2023-03-31T03:58:40;19.33;;;8.13;;
22219;SDS011;11279;48.364;10.904;2023-03-31T03:59:41;16.93;;;8.07;;
22219;SDS011;11279;48.364;10.904;2023-03-31T04:00:41;15.77;;;8.30;;
22219;SDS011;11279;48.364;10.904;2023-03-31T04:01:43;19.38;;;9.00;;
22219;SDS011;11279;48.364;10.904;2023-03-31T04:02:44;17.07;;;8.00;;
22219;SDS011;11279;48.364;10.904;2023-03-31T04:03:44;15.33;;;7.83;;
22219;SDS011;11279;48.364;10.904;2023-03-31T04:04:45;20.33;;;8.50;;
22219;SDS011;11279;48.364;10.904;2023-03-31T04:05:46;18.10;;;8.15;;
22219;SDS011;11279;48.364;10.904;2023-03-31T04:06:49;17.33;;;7.93;;
22219;SDS011;11279;48.364;10.904;2023-03-31T04:07:49;14.27;;;7.97;;
22219;SDS011;11279;48.364;10.904;2023-03-31T04:08:49;16.53;;;7.90;;
22219;SDS011;11279;48.364;10.904;2023-03-31T04:09:50;15.70;;;7.70;;
22219;SDS011;11279;48.364;10.904;2023-03-31T04:10:50;18.07;;;8.47;;
22219;SDS011;11279;48.364;10.904;2023-03-31T04:11:51;19.10;;;8.80;;
22219;SDS011;11279;48.364;10.904;2023-03-31T04:12:51;16.17;;;8.23;;
22219;SDS011;11279;48.364;10.904;2023-03-31T04:13:52;20.73;;;9.43;;
22219;SDS011;11279;48.364;10.904;2023-03-31T04:14:52;16.30;;;8.53;;
22219;SDS011;11279;48.364;10.904;2023-03-31T04:15:52;16.80;;;8.00;;
22219;SDS011;11279;48.364;10.904;2023-03-31T04:16:53;15.03;;;8.80;;
22219;SDS011;11279;48.364;10.904;2023-03-31T04:17:55;16.35;;;7.93;;
22219;SDS011;11279;48.364;10.904;2023-03-31T04:18:57;18.13;;;8.85;;
22219;SDS011;11279;48.364;10.904;2023-03-31T04:20:02;19.05;;;8.65;;
22219;SDS011;11279;48.364;10.904;2023-03-31T04:21:09;20.08;;;8.82;;
22219;SDS011;11279;48.364;10.904;2023-03-31T04:22:11;17.60;;;8.80;;
22219;SDS011;11279;48.364;10.904;2023-03-31T04:23:14;17.35;;;8.15;;
22219;SDS011;11279;48.364;10.904;2023-03-31T04:24:14;14.90;;;8.30;;
22219;SDS011;11279;48.364;10.904;2023-03-31T04:25:20;18.10;;;7.60;;
22219;SDS011;11279;48.364;10.904;2023-03-31T04:26:21;16.95;;;8.15;;
22219;SDS011;11279;48.364;10.904;2023-03-31T04:27:30;18.90;;;8.45;;
22219;SDS011;11279;48.364;10.904;2023-03-31T04:28:33;20.20;;;8.30;;
22219;SDS011;11279;48.364;10.904;2023-03-31T04:29:34;18.17;;;8.10;;
22219;SDS011;11279;48.364;10.904;2023-03-31T04:30:36;18.42;;;7.75;;
22219;SDS011;11279;48.364;10.904;2023-03-31T04:31:39;21.55;;;8.60;;
22219;SDS011;11279;48.364;10.904;2023-03-31T04:32:41;15.20;;;8.20;;
22219;SDS011;11279;48.364;10.904;2023-03-31T04:33:42;15.37;;;8.23;;
22219;SDS011;11279;48.364;10.904;2023-03-31T04:34:45;14.50;;;7.93;;
22219;SDS011;11279;48.364;10.904;2023-03-31T04:35:46;18.43;;;8.33;;
22219;SDS011;11279;48.364;10.904;2023-03-31T04:36:49;16.08;;;8.10;;
22219;SDS011;11279;48.364;10.904;2023-03-31T04:37:50;15.17;;;7.70;;
22219;SDS011;11279;48.364;10.904;2023-03-31T04:38:51;19.15;;;7.90;;
22219;SDS011;11279;48.364;10.904;2023-03-31T04:39:53;18.98;;;7.97;;
22219;SDS011;11279;48.364;10.904;2023-03-31T04:40:54;16.20;;;8.33;;
22219;SDS011;11279;48.364;10.904;2023-03-31T04:41:56;16.52;;;7.93;;
22219;SDS011;11279;48.364;10.904;2023-03-31T04:42:57;17.65;;;7.70;;
22219;SDS011;11279;48.364;10.904;2023-03-31T04:43:57;22.47;;;8.83;;
22219;SDS011;11279;48.364;10.904;2023-03-31T04:44:58;16.60;;;8.17;;
22219;SDS011;11279;48.364;10.904;2023-03-31T04:45:58;19.73;;;8.80;;
22219;SDS011;11279;48.364;10.904;2023-03-31T04:46:59;19.50;;;8.03;;
22219;SDS011;11279;48.364;10.904;2023-03-31T04:48:02;13.48;;;7.70;;
22219;SDS011;11279;48.364;10.904;2023-03-31T04:49:02;18.40;;;7.93;;
22219;SDS011;11279;48.364;10.904;2023-03-31T04:50:04;15.50;;;7.82;;
22219;SDS011;11279;48.364;10.904;2023-03-31T04:51:06;15.07;;;7.97;;
22219;SDS011;11279;48.364;10.904;2023-03-31T04:52:07;14.43;;;8.30;;
22219;SDS011;11279;48.364;10.904;2023-03-31T04:53:08;15.17;;;8.50;;
22219;SDS011;11279;48.364;10.904;2023-03-31T04:54:08;14.83;;;8.50;;
22219;SDS011;11279;48.364;10.904;2023-03-31T04:55:09;18.33;;;9.30;;
22219;SDS011;11279;48.364;10.904;2023-03-31T04:56:10;21.90;;;8.80;;
22219;SDS011;11279;48.364;10.904;2023-03-31T04:57:11;16.95;;;7.95;;
22219;SDS011;11279;48.364;10.904;2023-03-31T04:58:11;18.40;;;8.30;;
22219;SDS011;11279;48.364;10.904;2023-03-31T04:59:12;17.67;;;8.70;;
22219;SDS011;11279;48.364;10.904;2023-03-31T05:00:12;17.17;;;8.97;;
22219;SDS011;11279;48.364;10.904;2023-03-31T05:01:13;15.95;;;8.35;;
22219;SDS011;11279;48.364;10.904;2023-03-31T05:02:17;16.35;;;8.05;;
22219;SDS011;11279;48.364;10.904;2023-03-31T05:03:22;16.70;;;8.93;;
22219;SDS011;11279;48.364;10.904;2023-03-31T05:04:22;19.17;;;8.93;;
22219;SDS011;11279;48.364;10.904;2023-03-31T05:05:23;14.80;;;9.03;;
22219;SDS011;11279;48.364;10.904;2023-03-31T05:06:24;14.87;;;7.80;;
22219;SDS011;11279;48.364;10.904;2023-03-31T05:07:24;18.33;;;8.10;;
22219;SDS011;11279;48.364;10.904;2023-03-31T05:08:25;18.90;;;8.17;;
22219;SDS011;11279;48.364;10.904;2023-03-31T05:09:26;17.80;;;9.20;;
22219;SDS011;11279;48.364;10.904;2023-03-31T05:10:26;17.80;;;8.70;;
22219;SDS011;11279;48.364;10.904;2023-03-31T05:11:27;16.67;;;9.13;;
22219;SDS011;11279;48.364;10.904;2023-03-31T05:12:28;19.27;;;8.47;;
22219;SDS011;11279;48.364;10.904;2023-03-31T05:13:28;13.73;;;7.80;;
22219;SDS011;11279;48.364;10.904;2023-03-31T05:14:29;17.07;;;8.67;;
22219;SDS011;11279;48.364;10.904;2023-03-31T05:15:29;15.63;;;8.47;;
22219;SDS011;11279;48.364;10.904;2023-03-31T05:16:30;16.50;;;8.30;;
22219;SDS011;11279;48.364;10.904;2023-03-31T05:17:30;16.87;;;8.87;;
22219;SDS011;11279;48.364;10.904;2023-03-31T05:18:32;17.13;;;9.35;;
22219;SDS011;11279;48.364;10.904;2023-03-31T05:19:32;16.90;;;9.03;;
22219;SDS011;11279;48.364;10.904;2023-03-31T05:20:33;16.33;;;8.53;;
22219;SDS011;11279;48.364;10.904;2023-03-31T05:21:33;17.40;;;8.43;;
22219;SDS011;11279;48.364;10.904;2023-03-31T05:22:34;22.80;;;9.13;;
22219;SDS011;11279;48.364;10.904;2023-03-31T05:23:35;17.10;;;9.15;;
22219;SDS011;11279;48.364;10.904;2023-03-31T05:24:36;18.57;;;9.63;;
22219;SDS011;11279;48.364;10.904;2023-03-31T05:25:36;15.73;;;8.63;;
22219;SDS011;11279;48.364;10.904;2023-03-31T05:26:37;19.77;;;8.60;;
22219;SDS011;11279;48.364;10.904;2023-03-31T05:27:38;17.42;;;8.57;;
22219;SDS011;11279;48.364;10.904;2023-03-31T05:28:39;20.23;;;9.90;;
22219;SDS011;11279;48.364;10.904;2023-03-31T05:29:40;15.97;;;8.80;;
22219;SDS011;11279;48.364;10.904;2023-03-31T05:30:40;18.17;;;8.80;;
22219;SDS011;11279;48.364;10.904;2023-03-31T05:31:41;16.50;;;8.83;;
22219;SDS011;11279;48.364;10.904;2023-03-31T05:32:41;22.30;;;8.90;;
22219;SDS011;11279;48.364;10.904;2023-03-31T05:33:42;15.67;;;9.23;;
22219;SDS011;11279;48.364;10.904;2023-03-31T05:34:43;19.07;;;9.57;;
22219;SDS011;11279;48.364;10.904;2023-03-31T05:35:43;15.40;;;8.20;;
22219;SDS011;11279;48.364;10.904;2023-03-31T05:36:44;16.40;;;8.80;;
22219;SDS011;11279;48.364;10.904;2023-03-31T05:37:47;17.75;;;8.50;;
22219;SDS011;11279;48.364;10.904;2023-03-31T05:38:47;17.60;;;7.97;;
22219;SDS011;11279;48.364;10.904;2023-03-31T05:39:48;16.53;;;8.00;;
22219;SDS011;11279;48.364;10.904;2023-03-31T05:40:48;17.07;;;8.20;;
22219;SDS011;11279;48.364;10.904;2023-03-31T05:41:49;14.03;;;7.47;;
22219;SDS011;11279;48.364;10.904;2023-03-31T05:42:49;16.60;;;7.80;;
22219;SDS011;11279;48.364;10.904;2023-03-31T05:43:50;19.63;;;7.97;;
22219;SDS011;11279;48.364;10.904;2023-03-31T05:44:50;18.17;;;7.73;;
22219;SDS011;11279;48.364;10.904;2023-03-31T05:45:50;12.50;;;6.77;;
22219;SDS011;11279;48.364;10.904;2023-03-31T05:46:54;16.70;;;6.87;;
22219;SDS011;11279;48.364;10.904;2023-03-31T05:47:54;15.13;;;7.32;;
22219;SDS011;11279;48.364;10.904;2023-03-31T05:48:55;12.97;;;6.80;;
22219;SDS011;11279;48.364;10.904;2023-03-31T05:49:55;15.70;;;8.20;;
22219;SDS011;11279;48.364;10.904;2023-03-31T05:50:56;17.77;;;7.33;;
22219;SDS011;11279;48.364;10.904;2023-03-31T05:51:57;16.50;;;8.02;;
22219;SDS011;11279;48.364;10.904;2023-03-31T05:52:58;14.33;;;6.43;;
22219;SDS011;11279;48.364;10.904;2023-03-31T05:53:59;14.10;;;6.90;;
22219;SDS011;11279;48.364;10.904;2023-03-31T05:54:59;17.97;;;6.83;;
22219;SDS011;11279;48.364;10.904;2023-03-31T05:56:01;13.47;;;6.70;;
22219;SDS011;11279;48.364;10.904;2023-03-31T05:57:02;11.85;;;6.32;;
22219;SDS011;11279;48.364;10.904;2023-03-31T05:58:03;18.57;;;6.70;;
22219;SDS011;11279;48.364;10.904;2023-03-31T05:59:03;14.13;;;6.83;;
22219;SDS011;11279;48.364;10.904;2023-03-31T06:00:04;15.03;;;6.40;;
22219;SDS011;11279;48.364;10.904;2023-03-31T06:01:09;15.00;;;6.53;;
22219;SDS011;11279;48.364;10.904;2023-03-31T06:02:18;18.42;;;7.15;;
22219;SDS011;11279;48.364;10.904;2023-03-31T06:03:18;13.50;;;6.17;;
22219;SDS011;11279;48.364;10.904;2023-03-31T06:04:19;12.30;;;7.30;;
22219;SDS011;11279;48.364;10.904;2023-03-31T06:05:19;15.30;;;7.40;;
22219;SDS011;11279;48.364;10.904;2023-03-31T06:06:22;16.80;;;7.20;;
22219;SDS011;11279;48.364;10.904;2023-03-31T06:07:22;11.77;;;7.20;;
22219;SDS011;11279;48.364;10.904;2023-03-31T06:08:24;14.95;;;7.00;;
22219;SDS011;11279;48.364;10.904;2023-03-31T06:09:24;15.57;;;7.00;;
22219;SDS011;11279;48.364;10.904;2023-03-31T06:10:25;14.98;;;7.00;;
22219;SDS011;11279;48.364;10.904;2023-03-31T06:11:25;16.63;;;7.67;;
22219;SDS011;11279;48.364;10.904;2023-03-31T06:12:26;12.97;;;7.03;;
22219;SDS011;11279;48.364;10.904;2023-03-31T06:13:26;19.23;;;7.30;;
22219;SDS011;11279;48.364;10.904;2023-03-31T06:14:27;15.27;;;6.70;;
22219;SDS011;11279;48.364;10.904;2023-03-31T06:15:27;12.97;;;6.83;;
22219;SDS011;11279;48.364;10.904;2023-03-31T06:16:28;17.60;;;7.40;;
22219;SDS011;11279;48.364;10.904;2023-03-31T06:17:28;14.83;;;7.37;;
22219;SDS011;11279;48.364;10.904;2023-03-31T06:18:29;14.77;;;7.57;;
22219;SDS011;11279;48.364;10.904;2023-03-31T06:19:31;12.68;;;7.47;;
22219;SDS011;11279;48.364;10.904;2023-03-31T06:20:31;14.43;;;7.33;;
22219;SDS011;11279;48.364;10.904;2023-03-31T06:21:31;13.10;;;7.20;;
22219;SDS011;11279;48.364;10.904;2023-03-31T06:22:33;14.75;;;7.78;;
22219;SDS011;11279;48.364;10.904;2023-03-31T06:23:33;16.60;;;7.43;;
22219;SDS011;11279;48.364;10.904;2023-03-31T06:24:34;17.43;;;7.20;;
22219;SDS011;11279;48.364;10.904;2023-03-31T06:25:36;15.87;;;7.63;;
22219;SDS011;11279;48.364;10.904;2023-03-31T06:26:37;20.02;;;7.90;;
22219;SDS011;11279;48.364;10.904;2023-03-31T06:27:37;16.07;;;7.73;;
22219;SDS011;11279;48.364;10.904;2023-03-31T06:28:38;16.40;;;8.10;;
22219;SDS011;11279;48.364;10.904;2023-03-31T06:29:38;12.67;;;7.23;;
22219;SDS011;11279;48.364;10.904;2023-03-31T06:30:39;15.67;;;7.47;;
22219;SDS011;11279;48.364;10.904;2023-03-31T06:31:40;12.17;;;7.37;;
22219;SDS011;11279;48.364;10.904;2023-03-31T06:32:40;11.70;;;6.73;;
22219;SDS011;11279;48.364;10.904;2023-03-31T06:33:41;19.60;;;8.30;;
22219;SDS011;11279;48.364;10.904;2023-03-31T06:34:42;18.58;;;7.70;;
22219;SDS011;11279;48.364;10.904;2023-03-31T06:35:42;11.87;;;7.60;;
22219;SDS011;11279;48.364;10.904;2023-03-31T06:36:43;18.67;;;8.43;;
22219;SDS011;11279;48.364;10.904;2023-03-31T06:37:43;14.40;;;7.87;;
22219;SDS011;11279;48.364;10.904;2023-03-31T06:38:44;16.67;;;7.87;;
22219;SDS011;11279;48.364;10.904;2023-03-31T06:39:44;16.80;;;8.50;;
22219;SDS011;11279;48.364;10.904;2023-03-31T06:40:45;17.93;;;8.97;;
22219;SDS011;11279;48.364;10.904;2023-03-31T06:41:45;15.63;;;8.43;;
22219;SDS011;11279;48.364;10.904;2023-03-31T06:42:46;15.53;;;8.63;;
22219;SDS011;11279;48.364;10.904;2023-03-31T06:43:46;19.83;;;8.90;;
22219;SDS011;11279;48.364;10.904;2023-03-31T06:44:47;17.37;;;7.67;;
22219;SDS011;11279;48.364;10.904;2023-03-31T06:45:47;14.13;;;7.33;;
22219;SDS011;11279;48.364;10.904;2023-03-31T06:46:48;20.63;;;8.57;;
22219;SDS011;11279;48.364;10.904;2023-03-31T06:47:49;17.77;;;8.73;;